sensor_id;sensor_type;location;lat;lon;timestamp;pressure;altitude;pressure_sealevel;temperature;humidity
6136;BME280;24008;42.664;23.372;2022-10-31T00:01:59;95228.00;;;14.17;55.77
6136;BME280;24008;42.664;23.372;2022-10-31T00:04:26;95162.19;;;13.81;55.69
6136;BME280;24008;42.664;23.372;2022-10-31T00:06:53;95216.75;;;14.18;55.74
6136;BME280;24008;42.664;23.372;2022-10-31T00:09:21;95206.88;;;14.05;55.72
6136;BME280;24008;42.664;23.372;2022-10-31T00:11:48;95223.66;;;14.18;55.91
6136;BME280;24008;42.664;23.372;2022-10-31T00:14:15;95197.00;;;14.01;56.13
6136;BME280;24008;42.664;23.372;2022-10-31T00:16:41;95226.06;;;14.19;56.37
6136;BME280;24008;42.664;23.372;2022-10-31T00:19:08;95220.94;;;14.19;56.56
6136;BME280;24008;42.664;23.372;2022-10-31T00:21:54;95205.72;;;14.00;56.41
6136;BME280;24008;42.664;23.372;2022-10-31T00:24:22;95197.63;;;13.95;56.80
6136;BME280;24008;42.664;23.372;2022-10-31T00:26:49;95220.88;;;14.11;56.42
6136;BME280;24008;42.664;23.372;2022-10-31T00:29:16;95215.75;;;14.11;56.57
6136;BME280;24008;42.664;23.372;2022-10-31T00:31:42;95225.06;;;14.12;56.89
6136;BME280;24008;42.664;23.372;2022-10-31T00:34:09;95221.84;;;14.10;56.67
6136;BME280;24008;42.664;23.372;2022-10-31T00:36:36;95214.06;;;14.02;56.98
6136;BME280;24008;42.664;23.372;2022-10-31T00:39:02;95221.19;;;14.08;57.28
6136;BME280;24008;42.664;23.372;2022-10-31T00:41:31;95217.00;;;14.07;57.05
6136;BME280;24008;42.664;23.372;2022-10-31T00:43:57;95228.09;;;14.07;57.06
6136;BME280;24008;42.664;23.372;2022-10-31T00:46:24;95202.78;;;13.95;57.32
6136;BME280;24008;42.664;23.372;2022-10-31T00:48:51;95220.53;;;14.06;57.41
6136;BME280;24008;42.664;23.372;2022-10-31T00:51:18;95221.31;;;14.06;57.47
6136;BME280;24008;42.664;23.372;2022-10-31T00:53:44;95217.00;;;14.07;57.01
6136;BME280;24008;42.664;23.372;2022-10-31T00:56:11;95182.09;;;13.79;57.20
6136;BME280;24008;42.664;23.372;2022-10-31T00:58:39;95225.94;;;14.03;57.60
6136;BME280;24008;42.664;23.372;2022-10-31T01:01:06;95201.41;;;13.83;57.50
6136;BME280;24008;42.664;23.372;2022-10-31T01:03:33;95224.28;;;13.94;57.60
6136;BME280;24008;42.664;23.372;2022-10-31T01:06:01;95186.06;;;13.73;57.52
6136;BME280;24008;42.664;23.372;2022-10-31T01:08:29;95228.84;;;14.00;57.93
6136;BME280;24008;42.664;23.372;2022-10-31T01:11:05;95225.91;;;13.95;58.02
6136;BME280;24008;42.664;23.372;2022-10-31T01:13:33;95175.50;;;13.58;58.06
6136;BME280;24008;42.664;23.372;2022-10-31T01:16:04;95232.59;;;13.88;58.03
6136;BME280;24008;42.664;23.372;2022-10-31T01:18:31;95233.47;;;13.79;58.22
6136;BME280;24008;42.664;23.372;2022-10-31T01:21:00;95215.00;;;13.57;58.75
6136;BME280;24008;42.664;23.372;2022-10-31T01:23:27;95232.91;;;13.49;59.07
6136;BME280;24008;42.664;23.372;2022-10-31T01:26:08;95212.25;;;13.23;59.58
6136;BME280;24008;42.664;23.372;2022-10-31T01:28:37;95247.91;;;13.26;60.18
6136;BME280;24008;42.664;23.372;2022-10-31T01:31:07;95213.50;;;12.92;60.38
6136;BME280;24008;42.664;23.372;2022-10-31T01:33:35;95242.81;;;12.89;61.29
6136;BME280;24008;42.664;23.372;2022-10-31T01:36:11;95228.63;;;12.58;61.90
6136;BME280;24008;42.664;23.372;2022-10-31T01:38:38;95243.31;;;12.66;62.31
6136;BME280;24008;42.664;23.372;2022-10-31T01:41:04;95248.19;;;12.59;62.62
6136;BME280;24008;42.664;23.372;2022-10-31T01:43:42;95244.56;;;12.52;62.96
6136;BME280;24008;42.664;23.372;2022-10-31T01:46:11;95246.34;;;12.51;63.38
6136;BME280;24008;42.664;23.372;2022-10-31T01:48:39;95253.34;;;12.49;63.82
6136;BME280;24008;42.664;23.372;2022-10-31T01:51:07;95263.06;;;12.46;63.57
6136;BME280;24008;42.664;23.372;2022-10-31T01:53:37;95232.09;;;12.30;63.81
6136;BME280;24008;42.664;23.372;2022-10-31T01:56:04;95201.09;;;12.13;63.87
6136;BME280;24008;42.664;23.372;2022-10-31T01:58:31;95243.50;;;12.45;64.12
6136;BME280;24008;42.664;23.372;2022-10-31T02:01:00;95240.28;;;12.43;64.46
6136;BME280;24008;42.664;23.372;2022-10-31T02:03:28;95241.25;;;12.42;64.44
6136;BME280;24008;42.664;23.372;2022-10-31T02:05:57;95241.50;;;12.39;65.40
6136;BME280;24008;42.664;23.372;2022-10-31T02:08:27;95248.25;;;12.40;64.55
6136;BME280;24008;42.664;23.372;2022-10-31T02:10:54;95235.03;;;12.35;64.83
6136;BME280;24008;42.664;23.372;2022-10-31T02:13:22;95240.16;;;12.35;64.78
6136;BME280;24008;42.664;23.372;2022-10-31T02:15:52;95255.53;;;12.35;65.54
6136;BME280;24008;42.664;23.372;2022-10-31T02:18:20;95239.88;;;12.38;65.00
6136;BME280;24008;42.664;23.372;2022-10-31T02:20:56;95209.97;;;12.29;64.96
6136;BME280;24008;42.664;23.372;2022-10-31T02:23:56;95244.56;;;12.52;64.42
6136;BME280;24008;42.664;23.372;2022-10-31T02:29:58;95247.13;;;12.52;64.47
6136;BME280;24008;42.664;23.372;2022-10-31T02:32:42;95258.34;;;12.51;64.26
6136;BME280;24008;42.664;23.372;2022-10-31T02:35:17;95242.56;;;12.46;64.26
6136;BME280;24008;42.664;23.372;2022-10-31T02:37:57;95252.63;;;12.57;64.21
6136;BME280;24008;42.664;23.372;2022-10-31T02:40:29;95213.47;;;12.27;64.05
6136;BME280;24008;42.664;23.372;2022-10-31T02:43:02;95262.38;;;12.53;64.48
6136;BME280;24008;42.664;23.372;2022-10-31T02:45:35;95271.69;;;12.54;64.28
6136;BME280;24008;42.664;23.372;2022-10-31T02:48:10;95127.69;;;11.66;64.97
6136;BME280;24008;42.664;23.372;2022-10-31T02:50:41;95265.75;;;12.54;65.28
6136;BME280;24008;42.664;23.372;2022-10-31T02:53:14;95244.88;;;12.39;65.80
6136;BME280;24008;42.664;23.372;2022-10-31T02:55:56;95238.16;;;12.29;66.59
6136;BME280;24008;42.664;23.372;2022-10-31T02:58:26;95269.03;;;12.37;67.35
6136;BME280;24008;42.664;23.372;2022-10-31T03:01:28;95201.94;;;11.85;68.32
6136;BME280;24008;42.664;23.372;2022-10-31T03:07:15;95274.06;;;12.00;68.65
6136;BME280;24008;42.664;23.372;2022-10-31T03:09:53;95278.94;;;11.93;68.82
6136;BME280;24008;42.664;23.372;2022-10-31T03:12:50;95275.72;;;11.91;68.92
6136;BME280;24008;42.664;23.372;2022-10-31T03:15:23;95247.22;;;11.75;69.13
6136;BME280;24008;42.664;23.372;2022-10-31T03:17:56;95271.53;;;11.90;69.53
6136;BME280;24008;42.664;23.372;2022-10-31T03:20:28;95270.16;;;11.86;69.21
6136;BME280;24008;42.664;23.372;2022-10-31T03:22:58;95272.84;;;11.84;69.44
6136;BME280;24008;42.664;23.372;2022-10-31T03:25:27;95272.06;;;11.84;69.65
6136;BME280;24008;42.664;23.372;2022-10-31T03:27:56;95277.97;;;11.84;69.59
6136;BME280;24008;42.664;23.372;2022-10-31T03:30:24;95261.78;;;11.74;70.09
6136;BME280;24008;42.664;23.372;2022-10-31T03:32:53;95258.28;;;11.66;70.61
6136;BME280;24008;42.664;23.372;2022-10-31T03:35:23;95285.81;;;11.83;69.75
6136;BME280;24008;42.664;23.372;2022-10-31T03:37:52;95224.03;;;11.47;68.91
6136;BME280;24008;42.664;23.372;2022-10-31T03:40:23;95267.97;;;11.72;69.02
6136;BME280;24008;42.664;23.372;2022-10-31T03:42:54;95286.47;;;11.85;69.35
6136;BME280;24008;42.664;23.372;2022-10-31T03:45:25;95287.28;;;11.85;69.27
6136;BME280;24008;42.664;23.372;2022-10-31T03:47:53;95294.16;;;11.85;69.95
6136;BME280;24008;42.664;23.372;2022-10-31T03:50:21;95273.38;;;11.69;70.85
6136;BME280;24008;42.664;23.372;2022-10-31T03:52:55;95296.34;;;11.80;71.45
6136;BME280;24008;42.664;23.372;2022-10-31T03:55:28;95296.81;;;11.74;72.30
6136;BME280;24008;42.664;23.372;2022-10-31T03:57:59;95295.63;;;11.68;71.96
6136;BME280;24008;42.664;23.372;2022-10-31T04:00:27;95300.31;;;11.63;71.93
6136;BME280;24008;42.664;23.372;2022-10-31T04:02:59;95308.94;;;11.62;72.21
6136;BME280;24008;42.664;23.372;2022-10-31T04:05:27;95210.78;;;10.94;71.83
6136;BME280;24008;42.664;23.372;2022-10-31T04:07:56;95307.75;;;11.57;72.56
6136;BME280;24008;42.664;23.372;2022-10-31T04:10:28;95309.19;;;11.49;72.31
6136;BME280;24008;42.664;23.372;2022-10-31T04:12:58;95317.00;;;11.48;71.78
6136;BME280;24008;42.664;23.372;2022-10-31T04:15:28;95300.28;;;11.34;71.93
6136;BME280;24008;42.664;23.372;2022-10-31T04:17:57;95310.41;;;11.45;71.98
6136;BME280;24008;42.664;23.372;2022-10-31T04:20:32;95313.25;;;11.52;71.66
6136;BME280;24008;42.664;23.372;2022-10-31T04:23:00;95319.72;;;11.56;71.62
6136;BME280;24008;42.664;23.372;2022-10-31T04:25:28;95302.31;;;11.60;71.71
6136;BME280;24008;42.664;23.372;2022-10-31T04:27:55;95318.38;;;11.62;71.53
6136;BME280;24008;42.664;23.372;2022-10-31T04:30:21;95324.03;;;11.65;72.05
6136;BME280;24008;42.664;23.372;2022-10-31T04:32:48;95319.72;;;11.66;72.45
6136;BME280;24008;42.664;23.372;2022-10-31T04:35:15;95320.28;;;11.69;72.37
6136;BME280;24008;42.664;23.372;2022-10-31T04:37:42;95177.91;;;10.80;72.66
6136;BME280;24008;42.664;23.372;2022-10-31T04:40:10;95322.16;;;11.67;72.27
6136;BME280;24008;42.664;23.372;2022-10-31T04:42:38;95326.47;;;11.67;73.01
6136;BME280;24008;42.664;23.372;2022-10-31T04:45:06;95322.94;;;11.48;72.56
6136;BME280;24008;42.664;23.372;2022-10-31T04:47:33;95332.66;;;11.74;72.04
6136;BME280;24008;42.664;23.372;2022-10-31T04:50:00;95328.94;;;11.78;71.64
6136;BME280;24008;42.664;23.372;2022-10-31T04:52:27;95328.69;;;11.81;71.35
6136;BME280;24008;42.664;23.372;2022-10-31T04:54:54;95330.03;;;11.85;71.62
6136;BME280;24008;42.664;23.372;2022-10-31T04:57:21;95338.69;;;11.94;72.12
6136;BME280;24008;42.664;23.372;2022-10-31T04:59:49;95207.31;;;11.14;71.10
6136;BME280;24008;42.664;23.372;2022-10-31T05:02:15;95340.13;;;11.96;71.09
6136;BME280;24008;42.664;23.372;2022-10-31T05:04:51;95330.56;;;11.98;71.74
6136;BME280;24008;42.664;23.372;2022-10-31T05:07:18;95327.88;;;12.00;71.30
6136;BME280;24008;42.664;23.372;2022-10-31T05:09:45;95307.25;;;11.82;70.97
6136;BME280;24008;42.664;23.372;2022-10-31T05:12:12;95343.25;;;12.09;71.48
6136;BME280;24008;42.664;23.372;2022-10-31T05:14:38;95339.47;;;12.13;71.74
6136;BME280;24008;42.664;23.372;2022-10-31T05:17:06;95338.41;;;12.16;72.18
6136;BME280;24008;42.664;23.372;2022-10-31T05:19:33;95344.34;;;12.16;72.83
6136;BME280;24008;42.664;23.372;2022-10-31T05:22:00;95356.88;;;12.10;72.91
6136;BME280;24008;42.664;23.372;2022-10-31T05:24:27;95326.94;;;11.91;72.68
6136;BME280;24008;42.664;23.372;2022-10-31T05:26:53;95359.56;;;12.08;72.53
6136;BME280;24008;42.664;23.372;2022-10-31T05:29:20;95368.88;;;12.09;72.40
6136;BME280;24008;42.664;23.372;2022-10-31T05:31:47;95357.41;;;12.13;72.84
6136;BME280;24008;42.664;23.372;2022-10-31T05:34:15;95342.44;;;11.99;72.08
6136;BME280;24008;42.664;23.372;2022-10-31T05:36:42;95276.72;;;11.60;71.79
6136;BME280;24008;42.664;23.372;2022-10-31T05:39:08;95346.34;;;12.03;72.21
6136;BME280;24008;42.664;23.372;2022-10-31T05:41:35;95367.53;;;12.15;72.91
6136;BME280;24008;42.664;23.372;2022-10-31T05:44:02;95366.72;;;12.14;72.25
6136;BME280;24008;42.664;23.372;2022-10-31T05:46:29;95342.69;;;11.96;72.10
6136;BME280;24008;42.664;23.372;2022-10-31T05:48:55;95348.66;;;12.06;72.69
6136;BME280;24008;42.664;23.372;2022-10-31T05:51:23;95287.97;;;11.78;72.23
6136;BME280;24008;42.664;23.372;2022-10-31T05:53:51;95372.50;;;12.45;71.65
6136;BME280;24008;42.664;23.372;2022-10-31T05:56:17;95377.22;;;12.59;71.36
6136;BME280;24008;42.664;23.372;2022-10-31T05:58:44;95375.72;;;12.76;71.18
6136;BME280;24008;42.664;23.372;2022-10-31T06:01:11;95376.72;;;13.03;70.51
6136;BME280;24008;42.664;23.372;2022-10-31T06:03:37;95353.34;;;13.43;69.03
6136;BME280;24008;42.664;23.372;2022-10-31T06:06:05;95365.34;;;14.32;67.00
6136;BME280;24008;42.664;23.372;2022-10-31T06:08:33;95386.69;;;15.46;62.83
6136;BME280;24008;42.664;23.372;2022-10-31T06:10:59;95386.50;;;16.40;59.39
6136;BME280;24008;42.664;23.372;2022-10-31T06:13:26;95390.19;;;17.10;55.85
6136;BME280;24008;42.664;23.372;2022-10-31T06:15:53;95391.22;;;17.87;53.59
6136;BME280;24008;42.664;23.372;2022-10-31T06:18:20;95393.91;;;18.79;50.87
6136;BME280;24008;42.664;23.372;2022-10-31T06:20:46;95348.56;;;19.12;47.91
6136;BME280;24008;42.664;23.372;2022-10-31T06:23:13;95398.00;;;19.25;48.28
6136;BME280;24008;42.664;23.372;2022-10-31T06:25:41;95411.75;;;18.74;49.26
6136;BME280;24008;42.664;23.372;2022-10-31T06:28:08;95364.66;;;18.02;49.92
6136;BME280;24008;42.664;23.372;2022-10-31T06:30:35;95417.47;;;17.76;50.96
6136;BME280;24008;42.664;23.372;2022-10-31T06:33:02;95417.75;;;17.34;52.62
6136;BME280;24008;42.664;23.372;2022-10-31T06:35:30;95364.28;;;16.63;53.64
6136;BME280;24008;42.664;23.372;2022-10-31T06:37:56;95363.94;;;16.42;53.66
6136;BME280;24008;42.664;23.372;2022-10-31T06:40:25;95389.19;;;16.30;54.58
6136;BME280;24008;42.664;23.372;2022-10-31T06:43:00;95413.31;;;15.89;55.80
6136;BME280;24008;42.664;23.372;2022-10-31T06:45:27;95424.22;;;15.82;56.47
6136;BME280;24008;42.664;23.372;2022-10-31T06:47:55;95419.41;;;15.79;57.67
6136;BME280;24008;42.664;23.372;2022-10-31T06:50:22;95419.41;;;15.88;57.70
6136;BME280;24008;42.664;23.372;2022-10-31T06:52:53;95422.88;;;16.12;58.30
6136;BME280;24008;42.664;23.372;2022-10-31T06:55:20;95423.72;;;16.29;56.55
6136;BME280;24008;42.664;23.372;2022-10-31T06:57:50;95422.50;;;16.82;55.20
6136;BME280;24008;42.664;23.372;2022-10-31T07:00:19;95398.41;;;17.77;51.88
6136;BME280;24008;42.664;23.372;2022-10-31T07:02:53;95370.03;;;18.68;49.17
6136;BME280;24008;42.664;23.372;2022-10-31T07:05:20;95427.22;;;20.07;47.31
6136;BME280;24008;42.664;23.372;2022-10-31T07:07:47;95419.09;;;21.17;44.79
6136;BME280;24008;42.664;23.372;2022-10-31T07:10:14;95397.41;;;21.66;42.95
6136;BME280;24008;42.664;23.372;2022-10-31T07:12:40;95399.72;;;22.36;41.29
6136;BME280;24008;42.664;23.372;2022-10-31T07:15:07;95373.16;;;22.80;39.77
6136;BME280;24008;42.664;23.372;2022-10-31T07:17:36;95397.38;;;23.40;38.65
6136;BME280;24008;42.664;23.372;2022-10-31T07:20:03;95410.88;;;24.01;37.40
6136;BME280;24008;42.664;23.372;2022-10-31T07:22:34;95390.91;;;24.27;36.83
6136;BME280;24008;42.664;23.372;2022-10-31T07:25:01;95385.50;;;24.53;36.63
6136;BME280;24008;42.664;23.372;2022-10-31T07:27:27;95363.38;;;24.56;35.28
6136;BME280;24008;42.664;23.372;2022-10-31T07:29:54;95397.47;;;24.92;35.59
6136;BME280;24008;42.664;23.372;2022-10-31T07:32:21;95395.06;;;24.91;35.65
6136;BME280;24008;42.664;23.372;2022-10-31T07:34:49;95379.38;;;24.34;35.96
6136;BME280;24008;42.664;23.372;2022-10-31T07:37:16;95402.75;;;24.23;36.70
6136;BME280;24008;42.664;23.372;2022-10-31T07:39:42;95406.91;;;24.68;36.10
6136;BME280;24008;42.664;23.372;2022-10-31T07:42:09;95401.94;;;25.17;35.24
6136;BME280;24008;42.664;23.372;2022-10-31T07:44:36;95404.97;;;25.13;35.14
6136;BME280;24008;42.664;23.372;2022-10-31T07:47:03;95337.88;;;25.01;34.55
6136;BME280;24008;42.664;23.372;2022-10-31T07:49:29;95400.41;;;24.77;35.52
6136;BME280;24008;42.664;23.372;2022-10-31T07:51:57;95385.94;;;23.54;36.48
6136;BME280;24008;42.664;23.372;2022-10-31T07:54:24;95403.81;;;23.18;38.04
6136;BME280;24008;42.664;23.372;2022-10-31T07:56:51;95405.75;;;23.75;37.86
6136;BME280;24008;42.664;23.372;2022-10-31T07:59:18;95414.38;;;24.33;36.20
6136;BME280;24008;42.664;23.372;2022-10-31T08:01:44;95373.75;;;24.37;35.73
6136;BME280;24008;42.664;23.372;2022-10-31T08:04:11;95412.69;;;25.08;35.05
6136;BME280;24008;42.664;23.372;2022-10-31T08:06:38;95384.78;;;25.45;34.47
6136;BME280;24008;42.664;23.372;2022-10-31T08:09:06;95403.53;;;26.15;32.93
6136;BME280;24008;42.664;23.372;2022-10-31T08:11:33;95397.66;;;25.65;34.07
6136;BME280;24008;42.664;23.372;2022-10-31T08:14:00;95395.78;;;25.91;33.24
6136;BME280;24008;42.664;23.372;2022-10-31T08:16:26;95402.75;;;26.15;33.27
6136;BME280;24008;42.664;23.372;2022-10-31T08:18:53;95405.91;;;26.35;33.05
6136;BME280;24008;42.664;23.372;2022-10-31T08:21:21;95220.84;;;24.96;33.28
6136;BME280;24008;42.664;23.372;2022-10-31T08:23:48;95383.16;;;26.47;32.60
6136;BME280;24008;42.664;23.372;2022-10-31T08:26:16;95415.41;;;26.78;32.18
6136;BME280;24008;42.664;23.372;2022-10-31T08:28:43;95387.34;;;26.67;31.94
6136;BME280;24008;42.664;23.372;2022-10-31T08:31:09;95406.75;;;26.77;32.00
6136;BME280;24008;42.664;23.372;2022-10-31T08:33:40;95401.34;;;26.61;32.07
6136;BME280;24008;42.664;23.372;2022-10-31T08:36:07;95361.03;;;26.32;32.14
6136;BME280;24008;42.664;23.372;2022-10-31T08:38:34;95397.91;;;26.60;32.50
6136;BME280;24008;42.664;23.372;2022-10-31T08:41:01;95398.97;;;26.82;32.13
6136;BME280;24008;42.664;23.372;2022-10-31T08:43:29;95400.50;;;26.90;32.19
6136;BME280;24008;42.664;23.372;2022-10-31T08:45:56;95396.91;;;27.14;31.56
6136;BME280;24008;42.664;23.372;2022-10-31T08:48:22;95397.50;;;27.28;31.56
6136;BME280;24008;42.664;23.372;2022-10-31T08:50:49;95396.34;;;27.12;32.16
6136;BME280;24008;42.664;23.372;2022-10-31T08:53:17;95382.28;;;26.95;32.17
6136;BME280;24008;42.664;23.372;2022-10-31T08:55:45;95401.59;;;27.24;32.31
6136;BME280;24008;42.664;23.372;2022-10-31T08:58:13;95383.56;;;27.39;32.07
6136;BME280;24008;42.664;23.372;2022-10-31T09:00:43;95387.53;;;27.42;31.24
6136;BME280;24008;42.664;23.372;2022-10-31T09:03:12;95401.94;;;27.74;31.40
6136;BME280;24008;42.664;23.372;2022-10-31T09:05:39;95395.44;;;27.77;31.49
6136;BME280;24008;42.664;23.372;2022-10-31T09:08:07;95367.56;;;27.76;31.39
6136;BME280;24008;42.664;23.372;2022-10-31T09:10:37;95397.91;;;27.83;31.34
6136;BME280;24008;42.664;23.372;2022-10-31T09:13:05;95366.94;;;27.85;30.98
6136;BME280;24008;42.664;23.372;2022-10-31T09:15:33;95364.56;;;28.24;30.58
6136;BME280;24008;42.664;23.372;2022-10-31T09:18:02;95392.81;;;28.45;30.23
6136;BME280;24008;42.664;23.372;2022-10-31T09:20:30;95391.59;;;28.36;30.90
6136;BME280;24008;42.664;23.372;2022-10-31T09:22:58;95375.25;;;28.34;31.23
6136;BME280;24008;42.664;23.372;2022-10-31T09:25:25;95383.91;;;28.63;31.17
6136;BME280;24008;42.664;23.372;2022-10-31T09:27:55;95337.84;;;28.60;30.11
6136;BME280;24008;42.664;23.372;2022-10-31T09:30:25;95355.59;;;28.82;29.96
6136;BME280;24008;42.664;23.372;2022-10-31T09:32:55;95363.97;;;28.50;29.78
6136;BME280;24008;42.664;23.372;2022-10-31T09:35:23;95385.78;;;28.34;31.48
6136;BME280;24008;42.664;23.372;2022-10-31T09:37:54;95318.63;;;27.86;30.39
6136;BME280;24008;42.664;23.372;2022-10-31T09:40:21;95349.78;;;28.51;30.22
6136;BME280;24008;42.664;23.372;2022-10-31T09:42:56;95382.22;;;28.85;30.01
6136;BME280;24008;42.664;23.372;2022-10-31T09:45:32;95321.41;;;28.37;29.80
6136;BME280;24008;42.664;23.372;2022-10-31T09:48:23;95379.34;;;29.03;30.08
6136;BME280;24008;42.664;23.372;2022-10-31T09:50:58;94974.50;;;26.63;29.85
6136;BME280;24008;42.664;23.372;2022-10-31T09:53:32;95379.13;;;29.05;29.52
6136;BME280;24008;42.664;23.372;2022-10-31T09:56:01;95331.34;;;28.80;29.63
6136;BME280;24008;42.664;23.372;2022-10-31T09:58:42;95376.72;;;29.59;29.08
6136;BME280;24008;42.664;23.372;2022-10-31T10:01:19;95375.19;;;29.24;29.53
6136;BME280;24008;42.664;23.372;2022-10-31T10:03:53;95356.72;;;28.86;29.88
6136;BME280;24008;42.664;23.372;2022-10-31T10:06:25;95301.09;;;28.49;29.62
6136;BME280;24008;42.664;23.372;2022-10-31T10:08:54;95361.97;;;28.86;29.54
6136;BME280;24008;42.664;23.372;2022-10-31T10:11:32;95354.63;;;28.14;31.05
6136;BME280;24008;42.664;23.372;2022-10-31T10:14:13;95354.91;;;27.14;31.81
6136;BME280;24008;42.664;23.372;2022-10-31T10:16:54;95301.13;;;25.51;33.51
6136;BME280;24008;42.664;23.372;2022-10-31T10:19:33;95346.56;;;25.20;34.41
6136;BME280;24008;42.664;23.372;2022-10-31T10:22:11;95319.63;;;24.69;35.12
6136;BME280;24008;42.664;23.372;2022-10-31T10:24:52;95329.25;;;24.51;36.65
6136;BME280;24008;42.664;23.372;2022-10-31T10:27:28;95351.50;;;24.53;36.72
6136;BME280;24008;42.664;23.372;2022-10-31T10:30:02;95262.72;;;23.84;37.03
6136;BME280;24008;42.664;23.372;2022-10-31T10:32:35;95333.34;;;24.02;37.59
6136;BME280;24008;42.664;23.372;2022-10-31T10:35:13;95335.56;;;23.92;38.28
6136;BME280;24008;42.664;23.372;2022-10-31T10:37:43;95330.00;;;23.82;38.86
6136;BME280;24008;42.664;23.372;2022-10-31T10:40:16;95263.78;;;23.18;38.03
6136;BME280;24008;42.664;23.372;2022-10-31T10:42:45;95320.72;;;23.41;38.33
6136;BME280;24008;42.664;23.372;2022-10-31T10:45:33;95272.78;;;23.22;38.89
6136;BME280;24008;42.664;23.372;2022-10-31T10:48:27;95319.19;;;23.72;38.97
6136;BME280;24008;42.664;23.372;2022-10-31T10:50:57;95220.88;;;23.14;38.29
6136;BME280;24008;42.664;23.372;2022-10-31T10:53:39;95283.88;;;23.69;37.27
6136;BME280;24008;42.664;23.372;2022-10-31T10:56:33;95260.22;;;23.64;37.18
6136;BME280;24008;42.664;23.372;2022-10-31T10:59:03;95201.34;;;23.30;37.10
6136;BME280;24008;42.664;23.372;2022-10-31T11:01:30;95308.78;;;24.03;37.49
6136;BME280;24008;42.664;23.372;2022-10-31T11:03:57;95274.34;;;23.88;37.73
6136;BME280;24008;42.664;23.372;2022-10-31T11:06:24;95288.34;;;24.00;37.60
6136;BME280;24008;42.664;23.372;2022-10-31T11:08:53;95277.31;;;23.98;36.95
6136;BME280;24008;42.664;23.372;2022-10-31T11:11:24;95309.97;;;24.07;36.58
6136;BME280;24008;42.664;23.372;2022-10-31T11:14:00;95255.56;;;23.73;36.32
6136;BME280;24008;42.664;23.372;2022-10-31T11:16:31;95295.25;;;23.81;36.27
6136;BME280;24008;42.664;23.372;2022-10-31T11:19:13;95270.00;;;23.75;36.45
6136;BME280;24008;42.664;23.372;2022-10-31T11:21:41;95166.16;;;23.01;36.59
6136;BME280;24008;42.664;23.372;2022-10-31T11:24:15;95288.56;;;23.92;36.99
6136;BME280;24008;42.664;23.372;2022-10-31T11:26:44;95289.38;;;23.92;36.82
6136;BME280;24008;42.664;23.372;2022-10-31T11:29:15;95265.13;;;23.85;36.99
6136;BME280;24008;42.664;23.372;2022-10-31T11:31:44;95236.28;;;23.74;36.60
6136;BME280;24008;42.664;23.372;2022-10-31T11:34:17;95273.84;;;24.04;36.60
6136;BME280;24008;42.664;23.372;2022-10-31T11:36:45;95183.38;;;23.47;36.58
6136;BME280;24008;42.664;23.372;2022-10-31T11:39:17;95266.19;;;24.09;36.40
6136;BME280;24008;42.664;23.372;2022-10-31T11:41:45;95262.56;;;24.10;36.92
6136;BME280;24008;42.664;23.372;2022-10-31T11:44:14;95257.00;;;24.00;36.50
6136;BME280;24008;42.664;23.372;2022-10-31T11:46:44;95264.41;;;24.03;36.48
6136;BME280;24008;42.664;23.372;2022-10-31T11:49:16;95262.66;;;23.97;36.43
6136;BME280;24008;42.664;23.372;2022-10-31T11:51:48;95259.84;;;23.92;36.60
6136;BME280;24008;42.664;23.372;2022-10-31T11:54:21;95253.47;;;23.88;36.45
6136;BME280;24008;42.664;23.372;2022-10-31T11:56:48;95261.13;;;23.83;36.77
6136;BME280;24008;42.664;23.372;2022-10-31T11:59:18;95241.31;;;23.68;36.97
6136;BME280;24008;42.664;23.372;2022-10-31T12:02:17;95256.69;;;23.83;37.29
6136;BME280;24008;42.664;23.372;2022-10-31T12:07:13;95161.28;;;23.18;36.53
6136;BME280;24008;42.664;23.372;2022-10-31T12:09:42;95244.91;;;23.74;37.00
6136;BME280;24008;42.664;23.372;2022-10-31T12:12:20;95208.22;;;23.62;36.87
6136;BME280;24008;42.664;23.372;2022-10-31T12:14:59;95242.97;;;23.94;36.90
6136;BME280;24008;42.664;23.372;2022-10-31T12:17:31;95254.53;;;24.05;36.70
6136;BME280;24008;42.664;23.372;2022-10-31T12:20:07;95218.66;;;23.94;36.57
6136;BME280;24008;42.664;23.372;2022-10-31T12:22:44;95180.19;;;23.51;36.33
6136;BME280;24008;42.664;23.372;2022-10-31T12:25:25;95246.63;;;23.87;36.45
6136;BME280;24008;42.664;23.372;2022-10-31T12:28:17;95247.47;;;23.81;36.44
6136;BME280;24008;42.664;23.372;2022-10-31T12:31:00;95238.63;;;23.82;36.53
6136;BME280;24008;42.664;23.372;2022-10-31T12:33:39;95240.81;;;23.85;36.29
6136;BME280;24008;42.664;23.372;2022-10-31T12:36:19;95246.63;;;23.87;36.19
6136;BME280;24008;42.664;23.372;2022-10-31T12:38:57;95238.81;;;23.87;36.19
6136;BME280;24008;42.664;23.372;2022-10-31T12:41:39;95228.31;;;23.62;36.18
6136;BME280;24008;42.664;23.372;2022-10-31T12:44:19;95236.69;;;23.70;36.43
6136;BME280;24008;42.664;23.372;2022-10-31T12:46:59;95242.75;;;23.64;36.57
6136;BME280;24008;42.664;23.372;2022-10-31T12:49:39;95244.38;;;23.59;36.48
6136;BME280;24008;42.664;23.372;2022-10-31T12:52:27;95244.38;;;23.59;36.96
6136;BME280;24008;42.664;23.372;2022-10-31T12:55:13;95150.53;;;22.94;37.09
6136;BME280;24008;42.664;23.372;2022-10-31T12:57:46;95204.78;;;23.24;37.46
6136;BME280;24008;42.664;23.372;2022-10-31T13:00:16;95242.00;;;23.44;37.36
6136;BME280;24008;42.664;23.372;2022-10-31T13:02:48;95192.97;;;23.15;37.36
6136;BME280;24008;42.664;23.372;2022-10-31T13:05:29;95005.13;;;21.87;37.16
6136;BME280;24008;42.664;23.372;2022-10-31T13:07:59;95214.75;;;23.33;37.41
6136;BME280;24008;42.664;23.372;2022-10-31T13:10:32;95245.41;;;23.45;37.42
6136;BME280;24008;42.664;23.372;2022-10-31T13:13:06;95170.97;;;22.97;36.86
6136;BME280;24008;42.664;23.372;2022-10-31T13:15:44;95215.56;;;23.34;37.01
6136;BME280;24008;42.664;23.372;2022-10-31T13:18:19;95218.56;;;23.38;36.84
6136;BME280;24008;42.664;23.372;2022-10-31T13:20:48;95221.19;;;23.38;36.69
6136;BME280;24008;42.664;23.372;2022-10-31T13:23:22;95139.69;;;22.97;36.69
6136;BME280;24008;42.664;23.372;2022-10-31T13:25:55;95197.91;;;23.36;36.66
6136;BME280;24008;42.664;23.372;2022-10-31T13:28:34;95244.78;;;23.62;36.23